Terminal Aerodrome Forecast
Issued by NWS Columbia, SC

Home | Current Version | Previous Version | Text Only | Print | Product List | Glossary On
Versions: 1 2 3 4 5 6 7 8 9 10 11 12 13 14 15 16 17 18 19 20 21 22 23 24 25 26 27 28 29 30
321
FTUS42 KCAE 261530 AAA
TAFCAE
TAF AMD
KCAE 261530Z 2616/2712 17010G16KT P6SM VCSH BKN035
     FM270000 15006KT P6SM BKN050
     FM270900 15004KT 3SM BR BKN015=

USA.gov is the U.S. government's official web portal to all federal, state and local government web resources and services.